Time;durP1;ratioP1;P1;durP2;ratioP2;P2;SDS_P1;SDS_P2;PMS_P1;PMS_P2;Temp;Humidity;BMP_temperature;BMP_pressure;BME280_temperature;BME280_humidity;BME280_pressure;Samples;Min_cycle;Max_cycle;Signal;HPM_P1;HPM_P2
2022/06/07 00:01:12;;;;;;;19.02;5.43;;;14.00;99.90;;;;;;5094400;28;20035;-73
2022/06/07 00:03:38;;;;;;;13.07;5.40;;;13.90;99.90;;;;;;5094521;28;20017;-73
2022/06/07 00:06:04;;;;;;;13.63;5.78;;;13.80;99.90;;;;;;5094732;28;20032;-73
2022/06/07 00:08:31;;;;;;;12.52;5.72;;;13.90;99.90;;;;;;5094724;28;20066;-73
2022/06/07 00:10:57;;;;;;;11.10;4.10;;;13.90;99.90;;;;;;5094530;28;20085;-73
2022/06/07 00:13:23;;;;;;;9.25;4.53;;;13.80;99.90;;;;;;5092723;28;20046;-73
2022/06/07 00:15:49;;;;;;;10.05;4.97;;;13.90;99.90;;;;;;5094094;28;20024;-73
2022/06/07 00:18:15;;;;;;;7.53;4.00;;;14.00;99.90;;;;;;5094087;28;20027;-73
2022/06/07 00:20:42;;;;;;;11.88;5.03;;;14.00;99.90;;;;;;5094268;28;20016;-73
2022/06/07 00:23:11;;;;;;;11.68;5.15;;;13.80;99.90;;;;;;5094109;28;20081;-73
2022/06/07 00:25:38;;;;;;;15.50;4.22;;;13.60;99.90;;;;;;5094206;28;20020;-73
2022/06/07 00:28:05;;;;;;;7.85;4.20;;;13.60;99.90;;;;;;5094171;28;20031;-73
2022/06/07 00:30:31;;;;;;;7.68;4.03;;;13.80;99.90;;;;;;5092321;28;20507;-73
2022/06/07 00:32:58;;;;;;;7.30;3.55;;;13.80;99.90;;;;;;5092498;28;20016;-73
2022/06/07 00:35:24;;;;;;;12.10;3.97;;;14.00;99.90;;;;;;5093761;28;20638;-73
2022/06/07 00:37:50;;;;;;;6.60;3.63;;;13.90;99.90;;;;;;5092704;28;20065;-73
2022/06/07 00:40:16;;;;;;;10.23;3.80;;;13.90;99.90;;;;;;5080962;28;20036;-73
2022/06/07 00:42:42;;;;;;;12.15;3.53;;;13.90;99.90;;;;;;5073784;28;20020;-73
2022/06/07 00:45:14;;;;;;;8.52;3.38;;;14.00;99.90;;;;;;5078082;28;20020;-73
2022/06/07 00:47:40;;;;;;;;;;;14.00;99.90;;;;;;5083310;28;20028;-73
2022/06/07 00:50:25;;;;;;;10.52;4.07;;;13.90;99.90;;;;;;5081067;28;19904;-73
2022/06/07 00:52:51;;;;;;;9.57;3.83;;;13.90;99.90;;;;;;5093445;28;20111;-73
2022/06/07 00:55:17;;;;;;;8.07;3.47;;;13.90;99.90;;;;;;5092396;28;20111;-73
2022/06/07 00:57:47;;;;;;;14.27;3.83;;;14.10;99.90;;;;;;5077836;28;20025;-73
2022/06/07 01:00:24;;;;;;;10.20;3.47;;;14.20;99.90;;;;;;5091721;28;20399;-73
2022/06/07 01:02:51;;;;;;;7.72;3.10;;;14.00;99.90;;;;;;5091799;28;20028;-73
2022/06/07 01:05:18;;;;;;;15.18;4.25;;;13.90;99.90;;;;;;5092073;28;20031;-73
2022/06/07 01:10:44;;;;;;;10.40;3.83;;;13.90;99.90;;;;;;5092064;28;20036;-73
2022/06/07 01:13:19;;;;;;;12.07;3.78;;;13.90;99.90;;;;;;5089156;28;20186;-73
2022/06/07 01:15:48;;;;;;;12.18;3.65;;;14.00;99.90;;;;;;5081486;28;20020;-73
2022/06/07 01:18:16;;;;;;;7.72;3.40;;;13.90;99.90;;;;;;5091640;28;20027;-73
2022/06/07 01:20:43;;;;;;;9.15;3.40;;;13.70;99.90;;;;;;5092057;28;20392;-73
2022/06/07 01:23:09;;;;;;;8.27;3.75;;;13.70;99.90;;;;;;5091829;28;20050;-73
2022/06/07 01:25:37;;;;;;;13.48;3.90;;;13.90;99.90;;;;;;5074606;28;20023;-73
2022/06/07 01:28:04;;;;;;;8.52;3.72;;;13.90;99.90;;;;;;5083988;28;20040;-73
2022/06/07 01:30:31;;;;;;;10.20;4.13;;;14.00;99.90;;;;;;5091564;28;20028;-73
2022/06/07 01:32:57;;;;;;;5.82;2.92;;;13.70;99.90;;;;;;5091651;28;20054;-73
2022/06/07 01:35:23;;;;;;;11.50;3.70;;;13.60;99.90;;;;;;5092814;28;20020;-73
2022/06/07 01:37:49;;;;;;;10.15;3.72;;;13.70;99.90;;;;;;5091728;28;20032;-73
2022/06/07 01:42:59;;;;;;;10.98;3.88;;;13.70;99.90;;;;;;5092780;28;20063;-73
2022/06/07 01:45:25;;;;;;;9.35;3.50;;;13.80;99.90;;;;;;5091392;28;20048;-73
2022/06/07 01:47:51;;;;;;;8.15;3.15;;;13.90;99.90;;;;;;5074489;28;20090;-73
2022/06/07 01:50:18;;;;;;;8.77;3.67;;;13.90;99.90;;;;;;5083594;28;20048;-73
2022/06/07 01:52:44;;;;;;;8.25;3.80;;;13.70;99.90;;;;;;5091506;28;20477;-73
2022/06/07 01:55:21;;;;;;;9.25;3.50;;;13.80;99.90;;;;;;5091373;28;20020;-73
2022/06/07 01:58:03;;;;;;;13.35;4.55;;;13.70;99.90;;;;;;5091262;28;20032;-73
2022/06/07 02:00:29;;;;;;;5.30;3.80;;;13.80;99.90;;;;;;5091292;28;20032;-73
2022/06/07 02:02:55;;;;;;;12.23;4.45;;;13.60;99.90;;;;;;5074491;28;20085;-73
2022/06/07 02:05:21;;;;;;;11.95;5.05;;;13.60;99.90;;;;;;5092395;28;20477;-73
2022/06/07 02:07:54;;;;;;;9.05;4.55;;;13.70;99.90;;;;;;5091290;28;20027;-73
2022/06/07 02:10:26;;;;;;;12.23;4.18;;;13.60;99.90;;;;;;5091218;28;20032;-72
2022/06/07 02:12:55;;;;;;;11.80;4.28;;;13.40;99.90;;;;;;5094393;28;20028;-73
2022/06/07 02:15:21;;;;;;;10.90;4.90;;;13.30;99.90;;;;;;5095422;28;20082;-73
2022/06/07 02:17:46;;;;;;;11.63;4.28;;;13.20;99.90;;;;;;5096497;28;20384;-73
2022/06/07 02:20:35;;;;;;;14.75;5.05;;;13.10;99.90;;;;;;5093280;28;20036;-73
2022/06/07 02:23:02;;;;;;;10.35;4.25;;;13.10;99.90;;;;;;5095297;28;20024;-73
2022/06/07 02:25:29;;;;;;;11.50;4.57;;;13.20;99.90;;;;;;5094583;28;20020;-73
2022/06/07 02:27:56;;;;;;;6.13;4.13;;;13.10;99.90;;;;;;5096653;28;20422;-73
2022/06/07 02:30:22;;;;;;;10.45;4.80;;;13.20;99.90;;;;;;5095160;28;20024;-73
2022/06/07 02:32:48;;;;;;;9.07;4.82;;;13.10;99.90;;;;;;5096392;28;20035;-73
2022/06/07 02:35:14;;;;;;;6.68;4.72;;;13.10;99.90;;;;;;5096046;28;20419;-73
2022/06/07 02:37:40;;;;;;;11.65;4.93;;;13.10;99.90;;;;;;5096399;28;20064;-72
2022/06/07 02:40:07;;;;;;;9.00;4.63;;;13.10;99.90;;;;;;5094563;28;20026;-73
2022/06/07 02:42:33;;;;;;;7.22;4.20;;;13.10;99.90;;;;;;5096351;28;20067;-73
2022/06/07 02:44:59;;;;;;;8.45;4.43;;;13.10;99.90;;;;;;5094609;28;20055;-73
2022/06/07 02:47:25;;;;;;;12.70;5.50;;;13.00;99.90;;;;;;5085601;28;20036;-73
2022/06/07 02:49:57;;;;;;;;;;;12.90;99.90;;;;;;5085116;28;20379;-73
2022/06/07 02:52:23;;;;;;;12.95;4.85;;;12.80;99.90;;;;;;5094929;28;19982;-73
2022/06/07 02:55:10;;;;;;;13.82;6.47;;;12.80;99.90;;;;;;5094351;28;20024;-73
2022/06/07 02:57:38;;;;;;;12.70;4.55;;;12.90;99.90;;;;;;5094300;28;20117;-73
2022/06/07 03:00:09;;;;;;;12.63;4.93;;;12.70;99.90;;;;;;5094673;28;20050;-73
2022/06/07 03:02:35;;;;;;;11.90;6.35;;;12.80;99.90;;;;;;5094637;28;20024;-73
2022/06/07 03:05:02;;;;;;;10.55;5.10;;;12.90;99.90;;;;;;5077315;28;20027;-73
2022/06/07 03:07:28;;;;;;;14.77;5.90;;;12.80;99.90;;;;;;5094500;28;20172;-73
2022/06/07 03:09:55;;;;;;;12.50;5.38;;;12.90;99.90;;;;;;5094059;28;20118;-73
2022/06/07 03:12:20;;;;;;;14.40;6.03;;;12.80;99.90;;;;;;5094469;28;20040;-73
2022/06/07 03:14:47;;;;;;;9.77;5.03;;;12.70;99.90;;;;;;5094181;28;20439;-73
2022/06/07 03:17:15;;;;;;;9.85;5.47;;;12.80;99.90;;;;;;5094184;28;20028;-73
2022/06/07 03:19:41;;;;;;;15.82;6.03;;;12.70;99.90;;;;;;5094002;28;20032;-73
2022/06/07 03:22:07;;;;;;;10.80;6.32;;;12.90;99.90;;;;;;5093875;28;20020;-73
2022/06/07 03:24:35;;;;;;;13.15;6.20;;;12.90;99.90;;;;;;5093683;28;20472;-73
2022/06/07 03:27:02;;;;;;;14.57;5.85;;;12.80;99.90;;;;;;5094125;28;20103;-73
2022/06/07 03:29:28;;;;;;;12.98;6.30;;;12.70;99.90;;;;;;5094109;28;20380;-73
2022/06/07 03:31:55;;;;;;;13.48;5.85;;;12.70;99.90;;;;;;5093610;28;20039;-73
2022/06/07 03:34:25;;;;;;;13.65;5.32;;;12.60;99.90;;;;;;5093929;28;20020;-73
2022/06/07 03:36:51;;;;;;;10.52;5.75;;;12.60;99.90;;;;;;5095516;28;20039;-73
2022/06/07 03:39:19;;;;;;;8.95;6.15;;;12.50;99.90;;;;;;5093585;28;20063;-73
2022/06/07 03:41:53;;;;;;;10.60;6.70;;;12.50;99.90;;;;;;5093661;28;20445;-73
2022/06/07 03:44:23;;;;;;;12.35;6.38;;;12.60;99.90;;;;;;5093873;28;20114;-73
2022/06/07 03:46:56;;;;;;;13.10;6.60;;;12.60;99.90;;;;;;5085967;28;20063;-73
2022/06/07 03:49:23;;;;;;;15.70;6.45;;;12.70;99.90;;;;;;5079401;28;20032;-73
2022/06/07 03:51:52;;;;;;;13.73;6.63;;;12.40;99.90;;;;;;5093449;28;20032;-72
2022/06/07 03:54:18;;;;;;;15.07;6.50;;;12.50;99.90;;;;;;5093167;28;20473;-73
2022/06/07 03:56:46;;;;;;;10.95;6.53;;;12.60;99.90;;;;;;5093464;28;20028;-72
2022/06/07 03:59:14;;;;;;;12.70;7.22;;;12.60;99.90;;;;;;5093232;28;20024;-73
2022/06/07 04:01:41;;;;;;;14.77;7.63;;;12.70;99.90;;;;;;5094591;28;20032;-73
2022/06/07 04:04:09;;;;;;;12.30;6.85;;;12.70;99.90;;;;;;5093030;28;20028;-72
2022/06/07 04:08:10;;;;;;;18.75;6.78;;;12.70;99.90;;;;;;5093164;28;20024;-72
2022/06/07 04:09:30;;;;;;;13.23;6.43;;;12.50;99.90;;;;;;5093056;28;20032;-73
2022/06/07 04:11:56;;;;;;;12.00;6.43;;;12.50;99.90;;;;;;5092990;28;20044;-73
2022/06/07 04:14:22;;;;;;;16.20;7.05;;;12.50;99.90;;;;;;5093149;28;20039;-74
2022/06/07 04:16:49;;;;;;;13.77;6.68;;;12.40;99.90;;;;;;5092993;28;20077;-72
2022/06/07 04:19:20;;;;;;;17.10;6.83;;;12.30;99.90;;;;;;5093087;28;20546;-72
2022/06/07 04:21:46;;;;;;;12.73;7.50;;;12.30;99.90;;;;;;5092432;28;20081;-73
2022/06/07 04:24:25;;;;;;;13.23;6.63;;;12.40;99.90;;;;;;5092932;28;20020;-72
2022/06/07 04:26:52;;;;;;;15.98;6.90;;;12.50;99.90;;;;;;5092655;28;20628;-72
2022/06/07 04:29:18;;;;;;;12.68;6.93;;;12.50;99.90;;;;;;5093003;28;20028;-73
2022/06/07 04:31:43;;;;;;;13.57;6.85;;;12.50;99.90;;;;;;5092564;28;20028;-73
2022/06/07 04:34:13;;;;;;;12.07;6.95;;;12.60;99.90;;;;;;5075762;28;20024;-73
2022/06/07 04:36:41;;;;;;;13.10;6.60;;;12.60;99.90;;;;;;5092617;28;20077;-73
2022/06/07 04:39:09;;;;;;;15.63;7.10;;;12.60;99.90;;;;;;5092721;28;20027;-72
2022/06/07 04:42:01;;;;;;;10.60;6.50;;;12.50;99.90;;;;;;5092445;28;20036;-72
2022/06/07 04:44:38;;;;;;;13.20;7.15;;;12.60;99.90;;;;;;5092690;28;20123;-72
2022/06/07 04:47:05;;;;;;;16.77;7.90;;;12.80;99.90;;;;;;5084569;28;20038;-72
2022/06/07 04:49:31;;;;;;;17.45;7.65;;;12.80;99.90;;;;;;5074947;28;20091;-72
2022/06/07 04:51:57;;;;;;;13.20;7.18;;;13.10;99.90;;;;;;5084099;28;20180;-73
2022/06/07 04:54:31;;;;;;;15.82;7.15;;;13.20;99.90;;;;;;5093690;28;20424;-73
2022/06/07 04:57:00;;;;;;;14.43;7.25;;;13.10;99.90;;;;;;5092514;28;20062;-72
2022/06/07 04:59:26;;;;;;;13.98;6.95;;;13.00;99.90;;;;;;5075150;28;20365;-73
2022/06/07 05:01:58;;;;;;;15.25;6.72;;;13.20;99.90;;;;;;5092153;28;20024;-72
2022/06/07 05:04:28;;;;;;;16.23;6.43;;;13.30;99.90;;;;;;5091832;28;20054;-72
2022/06/07 05:06:57;;;;;;;11.02;7.07;;;13.40;99.90;;;;;;5092099;28;20040;-72
2022/06/07 05:09:43;;;;;;;13.38;6.72;;;13.40;99.90;;;;;;5089079;28;20044;-72
2022/06/07 05:12:15;;;;;;;15.95;7.22;;;13.50;99.90;;;;;;5092151;28;20170;-73
2022/06/07 05:14:45;;;;;;;15.40;7.63;;;13.50;99.90;;;;;;5091634;28;20525;-72
2022/06/07 05:17:15;;;;;;;16.02;6.70;;;13.20;99.90;;;;;;5092112;28;20025;-72
2022/06/07 05:19:43;;;;;;;20.50;8.02;;;13.10;99.90;;;;;;5091590;28;20024;-72
2022/06/07 05:22:13;;;;;;;19.13;7.40;;;13.10;99.90;;;;;;5091831;28;20031;-72
2022/06/07 05:24:46;;;;;;;14.75;7.53;;;13.20;99.90;;;;;;5091565;28;20070;-72
2022/06/07 05:27:19;;;;;;;17.27;6.90;;;13.20;99.90;;;;;;5091944;28;20036;-72
2022/06/07 05:29:50;;;;;;;16.83;6.72;;;13.40;99.90;;;;;;5091575;28;20094;-72
2022/06/07 05:32:30;;;;;;;12.75;7.05;;;13.50;99.90;;;;;;5091649;28;20040;-73
2022/06/07 05:34:58;;;;;;;17.95;6.93;;;13.60;99.90;;;;;;5074447;28;20024;-72
2022/06/07 05:37:24;;;;;;;20.25;6.82;;;13.90;99.90;;;;;;5091712;28;20036;-72
2022/06/07 05:40:07;;;;;;;14.07;6.15;;;13.90;99.90;;;;;;5091499;28;20032;-72
2022/06/07 05:42:33;;;;;;;18.58;6.10;;;14.00;99.90;;;;;;5077389;28;20399;-72
2022/06/07 05:44:59;;;;;;;14.07;6.82;;;13.80;99.90;;;;;;5078517;28;20013;-72
2022/06/07 05:47:30;;;;;;;15.50;6.47;;;13.80;99.90;;;;;;5085151;28;20074;-73
2022/06/07 05:49:56;;;;;;;13.70;6.47;;;13.80;99.90;;;;;;5080809;28;20503;-72
2022/06/07 05:52:25;;;;;;;14.73;6.72;;;14.00;99.90;;;;;;5102981;28;20100;-73
2022/06/07 05:54:53;;;;;;;13.38;5.72;;;14.30;99.90;;;;;;5101681;28;20476;-72
2022/06/07 05:57:19;;;;;;;21.52;5.85;;;14.50;99.90;;;;;;5101286;28;20028;-73
2022/06/07 05:59:48;;;;;;;10.27;5.68;;;14.30;99.90;;;;;;5092952;28;20012;-72
2022/06/07 06:02:15;;;;;;;14.75;5.90;;;14.40;99.90;;;;;;5103694;28;20028;-74
2022/06/07 06:04:42;;;;;;;19.50;7.03;;;14.20;99.90;;;;;;5092073;28;20058;-72
2022/06/07 06:07:09;;;;;;;20.95;6.00;;;14.00;99.90;;;;;;5103213;28;20448;-72
2022/06/07 06:12:28;;;;;;;13.82;5.43;;;14.40;99.90;;;;;;5091912;28;20044;-72
2022/06/07 06:15:05;;;;;;;13.18;5.38;;;14.50;99.90;;;;;;5105793;28;20023;-72
2022/06/07 06:17:31;;;;;;;14.70;5.43;;;14.50;99.90;;;;;;5087461;28;20028;-72
2022/06/07 06:20:05;;;;;;;18.10;4.97;;;14.60;99.90;;;;;;5097699;28;20051;-72
2022/06/07 06:22:35;;;;;;;10.00;5.10;;;15.10;99.90;;;;;;5095465;28;20028;-72
2022/06/07 06:25:06;;;;;;;13.07;4.97;;;15.00;99.90;;;;;;5093566;28;20024;-72
2022/06/07 06:27:33;;;;;;;12.60;5.68;;;15.20;99.90;;;;;;5106676;28;20570;-72
2022/06/07 06:30:02;;;;;;;11.48;4.90;;;15.40;99.90;;;;;;5099990;28;20502;-72
2022/06/07 06:32:29;;;;;;;11.02;4.82;;;15.30;99.90;;;;;;5095288;28;20043;-72
2022/06/07 06:34:56;;;;;;;15.85;5.68;;;15.10;99.90;;;;;;5094608;28;20032;-72
2022/06/07 06:37:27;;;;;;;14.60;5.15;;;15.20;99.90;;;;;;5108524;28;20434;-73
2022/06/07 06:39:55;;;;;;;26.35;5.80;;;15.50;99.90;;;;;;5104539;28;20498;-73
2022/06/07 06:42:22;;;;;;;11.55;4.93;;;15.60;99.90;;;;;;5093779;28;20032;-71
2022/06/07 06:45:17;;;;;;;15.10;5.28;;;15.50;99.90;;;;;;5050417;28;20041;-72
2022/06/07 06:47:47;;;;;;;14.05;5.00;;;15.50;99.90;;;;;;5078558;28;20016;-71
2022/06/07 06:50:13;;;;;;;14.02;4.72;;;15.70;99.90;;;;;;5078587;28;20020;-72
2022/06/07 06:52:40;;;;;;;14.18;4.80;;;15.80;99.90;;;;;;5095826;28;20056;-73
2022/06/07 06:55:06;;;;;;;14.45;5.00;;;15.90;99.90;;;;;;5095409;28;20453;-73
2022/06/07 06:57:32;;;;;;;14.00;4.63;;;15.80;99.90;;;;;;5088052;28;20054;-73
2022/06/07 07:00:04;;;;;;;11.15;5.00;;;16.10;99.90;;;;;;5082202;28;20074;-72
2022/06/07 07:02:32;;;;;;;10.88;5.43;;;16.20;99.90;;;;;;5091589;28;20067;-72
2022/06/07 07:05:04;;;;;;;;;;;16.20;99.90;;;;;;5081641;28;20044;-72
2022/06/07 07:07:32;;;;;;;13.40;4.63;;;16.10;99.90;;;;;;5086491;28;19920;-72
2022/06/07 07:09:58;;;;;;;12.73;5.05;;;16.00;99.90;;;;;;5071112;28;20056;-72
2022/06/07 07:12:24;;;;;;;15.30;5.72;;;16.00;99.90;;;;;;5080176;28;20040;-72
2022/06/07 07:15:04;;;;;;;15.73;5.28;;;16.20;99.90;;;;;;5089525;28;20427;-73
2022/06/07 07:17:39;;;;;;;14.82;5.07;;;16.50;99.90;;;;;;5075308;28;20368;-73
2022/06/07 07:20:06;;;;;;;18.95;5.40;;;16.60;99.90;;;;;;5085548;28;20020;-73
2022/06/07 07:22:36;;;;;;;10.60;5.30;;;16.70;99.90;;;;;;5080391;28;20055;-72
2022/06/07 07:25:05;;;;;;;11.40;5.70;;;16.60;99.90;;;;;;5073672;28;20035;-72
2022/06/07 07:27:31;;;;;;;12.13;4.85;;;16.90;99.90;;;;;;5079110;28;20017;-73
2022/06/07 07:29:59;;;;;;;13.63;5.22;;;17.20;99.90;;;;;;5084630;28;20354;-73
2022/06/07 07:32:26;;;;;;;10.93;5.20;;;16.90;99.90;;;;;;5075355;28;20043;-72
2022/06/07 07:34:54;;;;;;;15.85;5.45;;;16.80;99.90;;;;;;5079547;28;20516;-72
2022/06/07 07:37:21;;;;;;;9.65;4.97;;;16.70;99.90;;;;;;5082224;28;20075;-72
2022/06/07 07:39:51;;;;;;;8.05;4.47;;;16.80;99.90;;;;;;5076214;28;20017;-72
2022/06/07 07:42:21;;;;;;;16.63;4.90;;;17.20;99.90;;;;;;5076352;28;20115;-72
2022/06/07 07:44:57;;;;;;;8.52;5.55;;;17.20;99.90;;;;;;5098982;27;20025;-72
2022/06/07 07:47:24;;;;;;;12.45;4.60;;;17.20;99.90;;;;;;5073083;28;20021;-73
2022/06/07 07:49:49;;;;;;;12.35;5.82;;;17.30;99.90;;;;;;5082262;28;20358;-72
2022/06/07 07:52:19;;;;;;;14.82;5.72;;;17.60;99.90;;;;;;5100802;28;20031;-72
2022/06/07 07:54:50;;;;;;;12.57;5.45;;;17.40;99.90;;;;;;5099295;28;20012;-72
2022/06/07 07:57:16;;;;;;;11.20;4.78;;;17.20;99.90;;;;;;5103573;28;20403;-72
2022/06/07 07:59:44;;;;;;;9.50;4.28;;;17.70;99.90;;;;;;5094732;28;20031;-72
2022/06/07 08:02:20;;;;;;;7.75;4.85;;;17.70;99.90;;;;;;5098638;28;20081;-72
2022/06/07 08:04:50;;;;;;;14.95;5.38;;;17.60;99.90;;;;;;5081066;28;20028;-72
2022/06/07 08:07:16;;;;;;;8.90;4.47;;;17.60;99.90;;;;;;5082718;28;20030;-72
2022/06/07 08:09:43;;;;;;;8.60;4.60;;;17.80;99.90;;;;;;5080280;28;20151;-73
2022/06/07 08:12:09;;;;;;;14.23;3.95;;;18.10;99.90;;;;;;5076876;28;20032;-72
2022/06/07 08:14:36;;;;;;;10.93;4.57;;;17.90;99.90;;;;;;5090530;28;20038;-72
2022/06/07 08:17:02;;;;;;;8.15;3.40;;;18.10;99.90;;;;;;5090135;28;20473;-72
2022/06/07 08:19:28;;;;;;;7.28;3.15;;;17.90;99.90;;;;;;5075528;28;20126;-72
2022/06/07 08:21:54;;;;;;;10.40;3.08;;;17.90;99.90;;;;;;5079425;28;20013;-72
2022/06/07 08:24:19;;;;;;;8.38;3.70;;;18.00;99.90;;;;;;5074352;28;20392;-72
2022/06/07 08:26:48;;;;;;;10.25;3.78;;;17.90;99.90;;;;;;5086951;28;20025;-72
2022/06/07 08:29:16;;;;;;;14.30;2.92;;;17.70;99.90;;;;;;5082251;28;20076;-72
2022/06/07 08:31:42;;;;;;;10.73;2.55;;;17.40;99.90;;;;;;5082649;28;20036;-72
2022/06/07 08:39:40;;;;;;;4.13;2.10;;;18.40;99.90;;;;;;5080030;28;20029;-72
2022/06/07 08:42:37;;;;;;;7.20;2.42;;;17.80;99.90;;;;;;5076387;28;20024;-72
2022/06/07 08:45:07;;;;;;;7.45;2.22;;;17.80;99.90;;;;;;5079107;28;20392;-73
2022/06/07 08:48:01;;;;;;;5.28;1.65;;;17.90;99.90;;;;;;5080535;28;20020;-73
2022/06/07 08:50:29;;;;;;;7.97;2.13;;;18.10;99.90;;;;;;5078157;28;20459;-72
2022/06/07 08:53:02;;;;;;;5.32;1.75;;;18.10;99.90;;;;;;5097373;28;20115;-72
2022/06/07 08:55:34;;;;;;;7.25;2.80;;;17.90;99.90;;;;;;5087573;28;20017;-72
2022/06/07 08:58:12;;;;;;;21.17;3.78;;;18.30;99.90;;;;;;5074920;28;20040;-72
2022/06/07 09:00:40;;;;;;;11.68;2.47;;;18.50;99.90;;;;;;5074436;28;20054;-72
2022/06/07 09:03:12;;;;;;;4.90;1.92;;;18.70;99.90;;;;;;5101183;28;20031;-72
2022/06/07 09:05:38;;;;;;;6.90;2.20;;;18.90;99.90;;;;;;5094150;28;20042;-72
2022/06/07 09:08:04;;;;;;;7.45;2.47;;;18.30;99.90;;;;;;5073904;28;20025;-71
2022/06/07 09:13:22;;;;;;;6.00;1.88;;;19.00;99.90;;;;;;5085695;28;20096;-72
2022/06/07 09:15:52;;;;;;;6.75;2.13;;;19.40;99.90;;;;;;5086701;28;20036;-72
2022/06/07 09:18:19;;;;;;;5.15;1.90;;;19.20;99.90;;;;;;5069742;28;20024;-72
2022/06/07 09:20:53;;;;;;;10.63;2.72;;;19.00;99.90;;;;;;5073899;28;20039;-73
2022/06/07 09:23:24;;;;;;;4.95;1.85;;;18.80;99.90;;;;;;5075189;28;20372;-72
2022/06/07 09:25:53;;;;;;;4.23;1.60;;;18.50;99.90;;;;;;5087516;28;20028;-72
2022/06/07 09:28:29;;;;;;;6.60;2.30;;;18.50;99.90;;;;;;5082140;28;20385;-71
2022/06/07 09:31:08;;;;;;;3.10;2.10;;;18.20;99.90;;;;;;5080251;28;20036;-71
2022/06/07 09:33:53;;;;;;;6.57;1.80;;;18.40;99.90;;;;;;5079179;28;20028;-72
2022/06/07 09:36:29;;;;;;;12.35;2.33;;;18.70;99.90;;;;;;5074725;28;20028;-71
2022/06/07 09:39:03;;;;;;;7.15;2.55;;;18.60;99.90;;;;;;5077101;28;20043;-71
2022/06/07 09:41:37;;;;;;;7.80;2.53;;;18.20;99.90;;;;;;5096691;28;20098;-72
2022/06/07 09:44:25;;;;;;;7.28;2.28;;;18.20;99.90;;;;;;5080682;28;20103;-71
2022/06/07 09:47:19;;;;;;;4.35;1.90;;;18.30;99.90;;;;;;5083879;28;20099;-72
2022/06/07 09:49:46;;;;;;;3.97;2.00;;;18.20;99.90;;;;;;5081041;28;20028;-71
2022/06/07 09:52:24;;;;;;;5.00;1.73;;;18.30;99.90;;;;;;5090676;28;20060;-73
2022/06/07 09:55:30;;;;;;;4.60;2.28;;;18.70;99.90;;;;;;5102549;28;20051;-73
2022/06/07 09:58:14;;;;;;;4.43;2.55;;;18.60;99.90;;;;;;5075108;28;20033;-73
2022/06/07 10:00:48;;;;;;;4.60;2.42;;;19.10;99.90;;;;;;5090259;28;20027;-73
2022/06/07 10:03:31;;;;;;;5.82;2.10;;;19.20;99.90;;;;;;5078435;28;20069;-73
2022/06/07 10:06:03;;;;;;;5.07;2.28;;;19.30;99.90;;;;;;5099181;28;20513;-73
2022/06/07 10:08:34;;;;;;;5.22;2.20;;;19.40;99.90;;;;;;5096524;28;20476;-73
2022/06/07 10:11:10;;;;;;;4.75;1.98;;;18.90;99.90;;;;;;5095437;28;20472;-73
2022/06/07 10:13:42;;;;;;;3.47;2.00;;;18.90;99.90;;;;;;5085855;28;20043;-74
2022/06/07 10:16:26;;;;;;;3.78;1.70;;;19.00;99.90;;;;;;5075838;28;20054;-73
2022/06/07 10:19:09;;;;;;;4.93;2.20;;;18.80;99.90;;;;;;5087826;28;20024;-73
2022/06/07 10:21:46;;;;;;;9.38;1.92;;;19.00;99.90;;;;;;5071174;28;20032;-73
2022/06/07 10:24:31;;;;;;;4.88;1.90;;;19.10;99.90;;;;;;5071318;28;20020;-74
2022/06/07 10:27:16;;;;;;;4.30;1.67;;;19.00;99.90;;;;;;5080367;28;20016;-74
2022/06/07 10:30:04;;;;;;;5.43;2.10;;;19.40;99.90;;;;;;5085828;28;20110;-74
2022/06/07 10:32:35;;;;;;;6.75;2.05;;;19.20;99.90;;;;;;5082072;28;20040;-73
2022/06/07 10:35:42;;;;;;;3.15;1.95;;;19.00;99.90;;;;;;5084433;28;20029;-74
2022/06/07 10:38:40;;;;;;;3.88;2.13;;;18.90;99.90;;;;;;5080648;28;20028;-74
2022/06/07 10:41:25;;;;;;;5.80;2.17;;;18.70;99.90;;;;;;5081705;28;20023;-74
2022/06/07 10:43:56;;;;;;;10.05;2.50;;;18.90;99.90;;;;;;5086063;28;20055;-73
2022/06/07 10:46:22;;;;;;;3.33;2.03;;;19.20;99.90;;;;;;5076583;28;20485;-74
2022/06/07 10:49:09;;;;;;;10.38;2.58;;;19.20;99.90;;;;;;5087066;28;20589;-73
2022/06/07 10:54:27;;;;;;;4.35;2.67;;;18.80;99.90;;;;;;5103222;28;20111;-73
2022/06/07 10:57:14;;;;;;;5.05;2.72;;;19.00;99.90;;;;;;5103640;28;20020;-74
2022/06/07 10:59:43;;;;;;;6.32;2.42;;;19.30;99.90;;;;;;5085326;28;20023;-73
2022/06/07 11:02:15;;;;;;;3.65;2.50;;;19.70;99.90;;;;;;5107150;28;20039;-73
2022/06/07 11:11:12;;;;;;;2.28;2.08;;;19.80;99.90;;;;;;5098733;28;20031;-73
2022/06/07 11:14:09;;;;;;;9.88;2.75;;;19.60;99.90;;;;;;5102673;28;20046;-74
2022/06/07 11:17:01;;;;;;;3.83;2.75;;;20.00;99.90;;;;;;5106680;28;20483;-73
2022/06/07 11:19:27;;;;;;;3.72;2.78;;;20.30;99.90;;;;;;5095104;28;20039;-73
2022/06/07 11:22:00;;;;;;;3.30;2.28;;;20.20;99.90;;;;;;5097815;28;20024;-73
2022/06/07 11:24:35;;;;;;;5.35;2.33;;;19.70;99.90;;;;;;5095493;28;20039;-73
2022/06/07 11:27:06;;;;;;;3.08;2.10;;;19.40;99.90;;;;;;5108245;28;20020;-73
2022/06/07 11:29:33;;;;;;;8.60;2.13;;;19.80;99.90;;;;;;5108424;28;20030;-73
2022/06/07 11:32:02;;;;;;;6.57;2.30;;;19.90;99.90;;;;;;5098103;28;20028;-73
2022/06/07 11:34:33;;;;;;;2.95;1.98;;;19.80;99.90;;;;;;5096942;28;20077;-73
2022/06/07 11:37:08;;;;;;;3.10;2.00;;;19.50;99.90;;;;;;5108106;28;20108;-73
2022/06/07 11:39:38;;;;;;;3.00;1.77;;;20.00;99.90;;;;;;5093242;28;20433;-73
2022/06/07 11:42:25;;;;;;;5.50;2.40;;;19.90;99.90;;;;;;5100361;28;20052;-73
2022/06/07 11:45:03;;;;;;;8.30;2.38;;;20.10;99.90;;;;;;5091849;28;20472;-73
2022/06/07 11:47:36;;;;;;;5.07;2.08;;;20.60;99.90;;;;;;5085125;28;20128;-73
2022/06/07 11:50:12;;;;;;;4.32;1.88;;;20.60;99.90;;;;;;5084498;28;20031;-73
2022/06/07 11:52:58;;;;;;;4.53;2.22;;;20.10;99.90;;;;;;5091826;28;20435;-73
2022/06/07 11:55:27;;;;;;;5.10;1.88;;;20.20;99.90;;;;;;5094765;28;20456;-73
2022/06/07 11:58:04;;;;;;;4.70;2.40;;;19.90;99.90;;;;;;5094500;28;20016;-73
2022/06/07 12:00:30;;;;;;;4.00;2.10;;;20.00;99.90;;;;;;5087089;28;20020;-73
2022/06/07 12:03:00;;;;;;;3.88;2.00;;;19.90;99.90;;;;;;5092635;28;20490;-73
2022/06/07 12:05:32;;;;;;;2.35;2.15;;;20.40;99.90;;;;;;5086912;28;20123;-73
2022/06/07 12:08:02;;;;;;;6.47;2.38;;;20.80;99.90;;;;;;5078074;28;20241;-73
2022/06/07 12:10:36;;;;;;;6.43;2.37;;;21.40;99.90;;;;;;5082817;28;20028;-73
2022/06/07 12:13:13;;;;;;;3.67;2.50;;;21.40;99.90;;;;;;5073671;28;20363;-73
2022/06/07 12:15:39;;;;;;;4.55;2.10;;;21.30;99.90;;;;;;5086678;28;20089;-73
2022/06/07 12:18:19;;;;;;;4.53;2.20;;;21.30;99.90;;;;;;5081367;28;20424;-73
2022/06/07 12:21:12;;;;;;;8.65;2.30;;;20.80;99.90;;;;;;5078475;28;20046;-73
2022/06/07 12:23:42;;;;;;;3.70;2.03;;;19.90;99.90;;;;;;5076267;28;20443;-73
2022/06/07 12:26:19;;;;;;;3.08;1.88;;;19.80;99.90;;;;;;5090065;28;20028;-73
2022/06/07 12:28:55;;;;;;;3.88;1.83;;;20.30;99.90;;;;;;5087594;28;20507;-73
2022/06/07 12:31:26;;;;;;;3.40;1.60;;;20.50;99.90;;;;;;5075254;28;20086;-73
2022/06/07 12:33:54;;;;;;;3.30;1.65;;;20.80;99.90;;;;;;5086694;28;20055;-73
2022/06/07 12:36:24;;;;;;;2.47;1.48;;;21.00;99.90;;;;;;5074537;28;20028;-73
2022/06/07 12:38:51;;;;;;;2.90;1.70;;;20.80;99.90;;;;;;5090812;28;20035;-73
2022/06/07 12:41:26;;;;;;;3.55;1.55;;;20.70;99.90;;;;;;5078014;28;20472;-73
2022/06/07 12:43:59;;;;;;;2.97;1.75;;;20.70;99.90;;;;;;5071351;28;20024;-74
2022/06/07 12:46:28;;;;;;;5.78;1.80;;;20.90;99.90;;;;;;5073985;28;20501;-73
2022/06/07 12:48:56;;;;;;;4.00;1.60;;;20.80;99.90;;;;;;5071795;28;20119;-73
2022/06/07 12:51:36;;;;;;;2.67;2.15;;;20.60;99.90;;;;;;5092784;28;20026;-74
2022/06/07 12:54:19;;;;;;;2.58;1.63;;;20.80;99.90;;;;;;5093157;28;20476;-73
2022/06/07 12:56:46;;;;;;;4.93;1.92;;;21.30;99.90;;;;;;5093121;28;20500;-73
2022/06/07 12:59:33;;;;;;;3.47;1.65;;;20.90;99.90;;;;;;5093289;28;20409;-73
2022/06/07 13:02:02;;;;;;;3.45;1.85;;;21.10;99.90;;;;;;5093356;28;20512;-73
2022/06/07 13:04:39;;;;;;;9.23;1.80;;;21.60;99.90;;;;;;5092739;28;20028;-72
2022/06/07 13:07:25;;;;;;;5.53;1.77;;;21.90;99.90;;;;;;5084991;28;20036;-72
2022/06/07 13:09:57;;;;;;;3.58;2.15;;;21.20;99.90;;;;;;5092575;28;20365;-73
2022/06/07 13:12:26;;;;;;;3.85;2.22;;;21.40;99.90;;;;;;5093298;28;20040;-71
2022/06/07 13:14:54;;;;;;;4.70;2.20;;;20.50;99.90;;;;;;5093105;28;20012;-72
2022/06/07 13:17:27;;;;;;;3.28;2.28;;;20.40;99.90;;;;;;5092206;28;20392;-72
2022/06/07 13:19:55;;;;;;;4.30;1.77;;;20.40;99.90;;;;;;5089294;28;20051;-73
2022/06/07 13:22:23;;;;;;;9.30;2.20;;;20.40;99.90;;;;;;5077872;28;20021;-73
2022/06/07 13:24:54;;;;;;;2.88;2.00;;;20.30;99.90;;;;;;5073771;28;20028;-73
2022/06/07 13:27:31;;;;;;;3.78;1.60;;;20.70;99.90;;;;;;5097217;27;20028;-72
2022/06/07 13:29:59;;;;;;;3.72;1.88;;;20.40;99.90;;;;;;5078872;28;20082;-72